IDOT BID ITEMS (Switch to TOLLWAY)

Show/Hide column: Pay Item # - Pay Item Description - Unit - County - Dist - Contract - Date
Pay Item # Pay Item Description Unit Quantity Award Unit Price County Dist Contract Date Bid Unit Prices:
40600990 TEMPORARY RAMP SQ YD 283 $40.00 MONTGOMERY 6 72L63 04/29/2022 $15.00, $40.00, $12.19
40600990 TEMPORARY RAMP SQ YD 891 $0.01 IROQUOIS 3 66K77 04/29/2022 $0.01
40600990 TEMPORARY RAMP SQ YD 581 $23.00 FORD 3 66L03 04/29/2022 $23.00
40600990 TEMPORARY RAMP SQ YD 1,133 $27.25 DEKALB 3 66L50 04/29/2022 $27.25, $26.52
40600990 TEMPORARY RAMP SQ YD 132 $15.00 BUREAU 3 66L72 04/29/2022 $15.00
40600990 TEMPORARY RAMP SQ YD 991 $0.01 LIVINGSTON 3 66L90 04/29/2022 $0.01, $36.00
40600990 TEMPORARY RAMP SQ YD 2,016 $7.50 LASALLE 3 66M27 04/29/2022 $7.50
40600990 TEMPORARY RAMP SQ YD 457 $14.50 DEKALB 3 66M29 04/29/2022 $14.50, $11.00, $10.00, $0.01
40600990 TEMPORARY RAMP SQ YD 7,702 $4.21 WARREN 4 68A36 04/29/2022 $4.21
40600990 TEMPORARY RAMP SQ YD 158 $65.00 MERCER 4 68F44 04/29/2022 $65.00, $55.00
40600990 TEMPORARY RAMP SQ YD 1,431 $20.00 MARSHALL 4 68F87 04/29/2022 $20.00
40600990 TEMPORARY RAMP SQ YD 18 $87.81 MCDONOUGH 4 68G88 04/29/2022 $87.81
40600990 TEMPORARY RAMP SQ YD 689 $31.47 MCLEAN 5 70778 04/29/2022 $31.47
40600990 TEMPORARY RAMP SQ YD 503 $35.71 MCLEAN 5 70994 04/29/2022 $35.71
40600990 TEMPORARY RAMP SQ YD 722 $39.85 DEWITT 5 70A57 04/29/2022 $39.85
40600990 TEMPORARY RAMP SQ YD 855 $38.25 CHAMPAIGN 5 70A89 04/29/2022 $38.25
40600990 TEMPORARY RAMP SQ YD 1,081 $22.00 CHAMPAIGN 5 70B04 04/29/2022 $22.00
40600990 TEMPORARY RAMP SQ YD 1,796 $67.25 CHAMPAIGN 5 70C01 04/29/2022 $67.25
40600990 TEMPORARY RAMP SQ YD 1,576 $42.00 VERMILION 5 70C20 04/29/2022 $42.00, $51.00
40600990 TEMPORARY RAMP SQ YD 28 $100.00 VERMILION 5 70F62 04/29/2022 $136.00, $100.00
  • Showing 1 to 20 of 737 entries.